sensor_id;sensor_type;location;lat;lon;timestamp;pressure;altitude;pressure_sealevel;temperature;humidity
7986;BME280;4038;42.612;23.066;2023-07-20T00:00:27;92844.97;;;34.77;30.67
7986;BME280;4038;42.612;23.066;2023-07-20T00:02:52;92848.53;;;34.78;30.99
7986;BME280;4038;42.612;23.066;2023-07-20T00:05:18;92845.28;;;35.33;29.89
7986;BME280;4038;42.612;23.066;2023-07-20T00:07:46;92845.06;;;34.18;31.17
7986;BME280;4038;42.612;23.066;2023-07-20T00:10:11;92842.91;;;35.26;30.21
7986;BME280;4038;42.612;23.066;2023-07-20T00:12:37;92835.31;;;34.23;31.24
7986;BME280;4038;42.612;23.066;2023-07-20T00:15:02;92828.53;;;34.13;31.73
7986;BME280;4038;42.612;23.066;2023-07-20T00:17:28;92826.81;;;36.35;28.13
7986;BME280;4038;42.612;23.066;2023-07-20T00:19:53;92823.84;;;36.31;28.25
7986;BME280;4038;42.612;23.066;2023-07-20T00:22:18;92819.38;;;35.73;29.11
7986;BME280;4038;42.612;23.066;2023-07-20T00:24:44;92812.63;;;36.97;27.15
7986;BME280;4038;42.612;23.066;2023-07-20T00:27:09;92826.38;;;36.19;27.96
7986;BME280;4038;42.612;23.066;2023-07-20T00:29:35;92833.72;;;38.50;25.41
7986;BME280;4038;42.612;23.066;2023-07-20T00:32:00;92822.84;;;37.36;26.31
7986;BME280;4038;42.612;23.066;2023-07-20T00:34:26;92834.97;;;35.46;29.07
7986;BME280;4038;42.612;23.066;2023-07-20T00:36:51;92830.31;;;37.20;26.72
7986;BME280;4038;42.612;23.066;2023-07-20T00:39:16;92819.94;;;36.74;27.89
7986;BME280;4038;42.612;23.066;2023-07-20T00:41:42;92808.00;;;36.54;28.58
7986;BME280;4038;42.612;23.066;2023-07-20T00:44:07;92812.88;;;36.50;28.23
7986;BME280;4038;42.612;23.066;2023-07-20T00:46:33;92808.41;;;37.30;27.71
7986;BME280;4038;42.612;23.066;2023-07-20T00:48:59;92797.78;;;37.69;27.08
7986;BME280;4038;42.612;23.066;2023-07-20T00:51:25;92803.25;;;38.28;26.50
7986;BME280;4038;42.612;23.066;2023-07-20T00:53:52;92800.56;;;37.01;27.71
7986;BME280;4038;42.612;23.066;2023-07-20T00:56:17;92799.84;;;37.00;27.72
7986;BME280;4038;42.612;23.066;2023-07-20T00:58:43;92804.56;;;37.51;27.36
7986;BME280;4038;42.612;23.066;2023-07-20T01:01:09;92804.91;;;37.66;27.15
7986;BME280;4038;42.612;23.066;2023-07-20T01:03:35;92806.50;;;38.49;26.20
7986;BME280;4038;42.612;23.066;2023-07-20T01:14:11;92812.25;;;36.53;29.02
7986;BME280;4038;42.612;23.066;2023-07-20T01:16:37;92812.00;;;37.01;28.01
7986;BME280;4038;42.612;23.066;2023-07-20T01:19:02;92802.66;;;36.98;27.76
7986;BME280;4038;42.612;23.066;2023-07-20T01:21:37;92811.81;;;37.90;27.12
7986;BME280;4038;42.612;23.066;2023-07-20T01:32:43;92805.13;;;38.14;27.11
7986;BME280;4038;42.612;23.066;2023-07-20T01:35:11;92799.72;;;36.94;27.95
7986;BME280;4038;42.612;23.066;2023-07-20T01:37:46;92803.66;;;36.51;28.80
7986;BME280;4038;42.612;23.066;2023-07-20T01:40:13;92801.81;;;35.82;29.78
7986;BME280;4038;42.612;23.066;2023-07-20T01:42:44;92794.72;;;36.95;28.49
7986;BME280;4038;42.612;23.066;2023-07-20T01:45:10;92794.66;;;36.93;28.03
7986;BME280;4038;42.612;23.066;2023-07-20T01:47:35;92798.53;;;36.75;28.46
7986;BME280;4038;42.612;23.066;2023-07-20T01:50:01;92806.63;;;36.02;29.14
7986;BME280;4038;42.612;23.066;2023-07-20T01:52:26;92799.59;;;35.07;30.66
7986;BME280;4038;42.612;23.066;2023-07-20T01:54:52;92805.31;;;35.81;29.60
7986;BME280;4038;42.612;23.066;2023-07-20T01:57:17;92799.13;;;36.70;28.64
7986;BME280;4038;42.612;23.066;2023-07-20T01:59:42;92795.34;;;37.21;28.27
7986;BME280;4038;42.612;23.066;2023-07-20T02:02:08;92790.59;;;37.66;27.29
7986;BME280;4038;42.612;23.066;2023-07-20T02:04:33;92789.72;;;38.33;26.54
7986;BME280;4038;42.612;23.066;2023-07-20T02:06:58;92787.63;;;38.36;26.31
7986;BME280;4038;42.612;23.066;2023-07-20T02:09:24;92783.75;;;37.81;26.52
7986;BME280;4038;42.612;23.066;2023-07-20T02:11:50;92780.00;;;37.38;27.56
7986;BME280;4038;42.612;23.066;2023-07-20T02:14:15;92782.81;;;37.36;27.43
7986;BME280;4038;42.612;23.066;2023-07-20T02:16:40;92787.97;;;37.78;26.87
7986;BME280;4038;42.612;23.066;2023-07-20T02:19:06;92790.41;;;36.94;27.65
7986;BME280;4038;42.612;23.066;2023-07-20T02:21:32;92783.44;;;35.87;29.51
7986;BME280;4038;42.612;23.066;2023-07-20T02:23:58;92781.09;;;34.84;30.58
7986;BME280;4038;42.612;23.066;2023-07-20T02:26:23;92777.19;;;35.69;29.43
7986;BME280;4038;42.612;23.066;2023-07-20T02:28:48;92779.66;;;34.83;30.85
7986;BME280;4038;42.612;23.066;2023-07-20T02:31:14;92775.28;;;35.04;30.31
7986;BME280;4038;42.612;23.066;2023-07-20T02:33:39;92779.72;;;34.85;30.75
7986;BME280;4038;42.612;23.066;2023-07-20T02:36:05;92778.44;;;35.38;29.99
7986;BME280;4038;42.612;23.066;2023-07-20T02:38:30;92775.34;;;34.61;31.38
7986;BME280;4038;42.612;23.066;2023-07-20T02:40:55;92769.78;;;33.40;33.12
7986;BME280;4038;42.612;23.066;2023-07-20T02:43:21;92772.75;;;33.44;33.07
7986;BME280;4038;42.612;23.066;2023-07-20T02:45:46;92763.25;;;32.98;33.65
7986;BME280;4038;42.612;23.066;2023-07-20T02:48:12;92758.56;;;32.16;35.10
7986;BME280;4038;42.612;23.066;2023-07-20T02:50:37;92761.97;;;32.48;34.71
7986;BME280;4038;42.612;23.066;2023-07-20T02:53:03;92769.09;;;34.01;32.46
7986;BME280;4038;42.612;23.066;2023-07-20T02:55:28;92769.91;;;34.91;30.86
7986;BME280;4038;42.612;23.066;2023-07-20T02:57:53;92764.03;;;35.08;30.86
7986;BME280;4038;42.612;23.066;2023-07-20T03:00:19;92766.63;;;35.24;30.63
7986;BME280;4038;42.612;23.066;2023-07-20T03:02:46;92757.75;;;36.43;29.11
7986;BME280;4038;42.612;23.066;2023-07-20T03:05:13;92762.72;;;35.87;29.85
7986;BME280;4038;42.612;23.066;2023-07-20T03:07:39;92769.78;;;35.60;29.98
7986;BME280;4038;42.612;23.066;2023-07-20T03:10:05;92762.25;;;35.96;29.71
7986;BME280;4038;42.612;23.066;2023-07-20T03:12:34;92766.22;;;36.39;28.58
7986;BME280;4038;42.612;23.066;2023-07-20T03:14:59;92770.50;;;34.22;31.69
7986;BME280;4038;42.612;23.066;2023-07-20T03:17:25;92782.59;;;35.33;30.42
7986;BME280;4038;42.612;23.066;2023-07-20T03:19:50;92775.69;;;33.86;32.42
7986;BME280;4038;42.612;23.066;2023-07-20T03:22:15;92763.78;;;35.00;31.07
7986;BME280;4038;42.612;23.066;2023-07-20T03:24:41;92778.00;;;34.55;31.63
7986;BME280;4038;42.612;23.066;2023-07-20T03:27:06;92779.09;;;34.67;31.66
7986;BME280;4038;42.612;23.066;2023-07-20T03:29:32;92783.25;;;33.99;32.50
7986;BME280;4038;42.612;23.066;2023-07-20T03:31:58;92786.06;;;34.84;31.28
7986;BME280;4038;42.612;23.066;2023-07-20T03:34:25;92782.03;;;34.26;32.22
7986;BME280;4038;42.612;23.066;2023-07-20T03:36:50;92779.44;;;34.12;32.46
7986;BME280;4038;42.612;23.066;2023-07-20T03:39:16;92778.75;;;33.92;32.64
7986;BME280;4038;42.612;23.066;2023-07-20T03:41:41;92779.28;;;34.08;32.30
7986;BME280;4038;42.612;23.066;2023-07-20T03:44:08;92776.28;;;34.45;31.96
7986;BME280;4038;42.612;23.066;2023-07-20T03:46:33;92780.75;;;35.44;30.50
7986;BME280;4038;42.612;23.066;2023-07-20T03:48:59;92789.72;;;35.58;30.34
7986;BME280;4038;42.612;23.066;2023-07-20T03:51:25;92784.50;;;36.28;29.50
7986;BME280;4038;42.612;23.066;2023-07-20T03:53:50;92798.78;;;35.76;30.13
7986;BME280;4038;42.612;23.066;2023-07-20T03:56:16;92788.78;;;35.75;29.83
7986;BME280;4038;42.612;23.066;2023-07-20T03:58:41;92780.97;;;36.04;29.70
7986;BME280;4038;42.612;23.066;2023-07-20T04:01:07;92784.50;;;34.57;31.65
7986;BME280;4038;42.612;23.066;2023-07-20T04:03:32;92785.75;;;33.49;33.11
7986;BME280;4038;42.612;23.066;2023-07-20T04:05:58;92792.28;;;33.93;32.63
7986;BME280;4038;42.612;23.066;2023-07-20T04:08:24;92784.44;;;32.60;34.27
7986;BME280;4038;42.612;23.066;2023-07-20T04:10:50;92780.84;;;32.24;35.31
7986;BME280;4038;42.612;23.066;2023-07-20T04:13:15;92770.09;;;32.20;35.23
7986;BME280;4038;42.612;23.066;2023-07-20T04:15:42;92773.94;;;33.37;33.88
7986;BME280;4038;42.612;23.066;2023-07-20T04:18:07;92779.19;;;33.07;33.82
7986;BME280;4038;42.612;23.066;2023-07-20T04:20:33;92770.09;;;32.73;34.52
7986;BME280;4038;42.612;23.066;2023-07-20T04:22:58;92765.88;;;33.12;33.89
7986;BME280;4038;42.612;23.066;2023-07-20T04:25:23;92764.63;;;32.79;34.31
7986;BME280;4038;42.612;23.066;2023-07-20T04:27:49;92763.59;;;33.46;33.73
7986;BME280;4038;42.612;23.066;2023-07-20T04:30:16;92765.09;;;34.52;32.34
7986;BME280;4038;42.612;23.066;2023-07-20T04:32:44;92762.19;;;33.66;33.39
7986;BME280;4038;42.612;23.066;2023-07-20T04:35:16;92756.19;;;33.19;34.19
7986;BME280;4038;42.612;23.066;2023-07-20T04:37:41;92749.28;;;33.83;33.38
7986;BME280;4038;42.612;23.066;2023-07-20T04:40:11;92752.66;;;33.38;34.08
7986;BME280;4038;42.612;23.066;2023-07-20T04:42:37;92756.53;;;34.08;32.80
7986;BME280;4038;42.612;23.066;2023-07-20T04:45:02;92767.44;;;33.54;33.51
7986;BME280;4038;42.612;23.066;2023-07-20T04:47:28;92764.72;;;32.46;35.22
7986;BME280;4038;42.612;23.066;2023-07-20T04:49:53;92759.66;;;33.35;33.95
7986;BME280;4038;42.612;23.066;2023-07-20T04:52:18;92772.97;;;34.31;32.61
7986;BME280;4038;42.612;23.066;2023-07-20T04:54:44;92768.81;;;34.34;32.43
7986;BME280;4038;42.612;23.066;2023-07-20T04:57:11;92756.94;;;34.64;32.59
7986;BME280;4038;42.612;23.066;2023-07-20T04:59:37;92759.41;;;34.97;31.47
7986;BME280;4038;42.612;23.066;2023-07-20T05:02:02;92758.06;;;35.48;31.10
7986;BME280;4038;42.612;23.066;2023-07-20T05:04:28;92757.41;;;35.75;30.45
7986;BME280;4038;42.612;23.066;2023-07-20T05:06:53;92762.31;;;36.54;29.53
7986;BME280;4038;42.612;23.066;2023-07-20T05:09:18;92756.41;;;36.18;29.87
7986;BME280;4038;42.612;23.066;2023-07-20T05:11:44;92765.88;;;36.25;29.80
7986;BME280;4038;42.612;23.066;2023-07-20T05:14:10;92759.53;;;36.00;30.13
7986;BME280;4038;42.612;23.066;2023-07-20T05:16:36;92747.69;;;36.40;29.71
7986;BME280;4038;42.612;23.066;2023-07-20T05:19:01;92749.88;;;36.14;30.31
7986;BME280;4038;42.612;23.066;2023-07-20T05:21:27;92756.88;;;36.09;30.39
7986;BME280;4038;42.612;23.066;2023-07-20T05:23:52;92759.91;;;37.04;28.96
7986;BME280;4038;42.612;23.066;2023-07-20T05:26:18;92770.88;;;37.14;28.87
7986;BME280;4038;42.612;23.066;2023-07-20T05:28:43;92779.81;;;38.40;27.79
7986;BME280;4038;42.612;23.066;2023-07-20T05:31:09;92783.31;;;38.35;27.64
7986;BME280;4038;42.612;23.066;2023-07-20T05:33:34;92796.41;;;38.46;27.03
7986;BME280;4038;42.612;23.066;2023-07-20T05:35:59;92787.66;;;39.24;26.50
7986;BME280;4038;42.612;23.066;2023-07-20T05:38:25;92784.78;;;37.62;28.32
7986;BME280;4038;42.612;23.066;2023-07-20T05:40:50;92791.88;;;39.19;26.60
7986;BME280;4038;42.612;23.066;2023-07-20T05:43:16;92787.03;;;38.03;27.58
7986;BME280;4038;42.612;23.066;2023-07-20T05:45:42;92788.19;;;39.10;26.59
7986;BME280;4038;42.612;23.066;2023-07-20T05:48:08;92776.53;;;39.48;25.86
7986;BME280;4038;42.612;23.066;2023-07-20T05:50:36;92786.25;;;39.27;25.94
7986;BME280;4038;42.612;23.066;2023-07-20T05:53:02;92775.13;;;38.57;26.93
7986;BME280;4038;42.612;23.066;2023-07-20T05:55:27;92775.91;;;39.03;26.08
7986;BME280;4038;42.612;23.066;2023-07-20T05:57:52;92779.19;;;38.44;26.87
7986;BME280;4038;42.612;23.066;2023-07-20T06:00:20;92768.16;;;37.90;27.62
7986;BME280;4038;42.612;23.066;2023-07-20T06:02:52;92768.97;;;40.37;24.94
7986;BME280;4038;42.612;23.066;2023-07-20T06:05:18;92773.69;;;39.00;26.30
7986;BME280;4038;42.612;23.066;2023-07-20T06:07:44;92774.75;;;40.39;24.91
7986;BME280;4038;42.612;23.066;2023-07-20T06:10:09;92774.22;;;38.06;27.55
7986;BME280;4038;42.612;23.066;2023-07-20T06:12:35;92766.66;;;38.65;26.88
7986;BME280;4038;42.612;23.066;2023-07-20T06:15:04;92773.94;;;39.70;26.04
7986;BME280;4038;42.612;23.066;2023-07-20T06:17:30;92767.19;;;39.46;26.56
7986;BME280;4038;42.612;23.066;2023-07-20T06:19:55;92767.59;;;39.80;25.88
7986;BME280;4038;42.612;23.066;2023-07-20T06:22:21;92764.63;;;40.32;25.51
7986;BME280;4038;42.612;23.066;2023-07-20T06:24:46;92753.97;;;40.45;25.14
7986;BME280;4038;42.612;23.066;2023-07-20T06:27:12;92761.59;;;42.66;23.13
7986;BME280;4038;42.612;23.066;2023-07-20T06:29:38;92754.16;;;45.17;20.63
7986;BME280;4038;42.612;23.066;2023-07-20T06:32:04;92750.44;;;45.92;19.60
7986;BME280;4038;42.612;23.066;2023-07-20T06:34:30;92758.72;;;46.27;19.27
7986;BME280;4038;42.612;23.066;2023-07-20T06:36:55;92756.28;;;46.92;18.89
7986;BME280;4038;42.612;23.066;2023-07-20T06:39:21;92755.22;;;47.94;18.36
7986;BME280;4038;42.612;23.066;2023-07-20T06:41:47;92756.31;;;46.90;19.07
7986;BME280;4038;42.612;23.066;2023-07-20T06:44:13;92752.31;;;47.14;18.59
7986;BME280;4038;42.612;23.066;2023-07-20T06:46:38;92763.84;;;46.20;19.30
7986;BME280;4038;42.612;23.066;2023-07-20T06:49:06;92764.91;;;45.94;20.00
7986;BME280;4038;42.612;23.066;2023-07-20T06:51:32;92779.28;;;44.35;21.09
7986;BME280;4038;42.612;23.066;2023-07-20T06:53:57;92765.69;;;45.19;20.43
7986;BME280;4038;42.612;23.066;2023-07-20T06:56:23;92771.44;;;44.15;21.28
7986;BME280;4038;42.612;23.066;2023-07-20T06:58:48;92777.53;;;45.64;20.29
7986;BME280;4038;42.612;23.066;2023-07-20T07:01:14;92781.81;;;43.07;21.91
7986;BME280;4038;42.612;23.066;2023-07-20T07:03:40;92795.78;;;40.64;24.72
7986;BME280;4038;42.612;23.066;2023-07-20T07:06:05;92794.00;;;41.07;24.28
7986;BME280;4038;42.612;23.066;2023-07-20T07:08:31;92799.41;;;41.55;23.48
7986;BME280;4038;42.612;23.066;2023-07-20T07:10:56;92811.59;;;39.99;24.87
7986;BME280;4038;42.612;23.066;2023-07-20T07:13:21;92813.22;;;41.89;22.71
7986;BME280;4038;42.612;23.066;2023-07-20T07:15:47;92817.53;;;41.88;22.81
7986;BME280;4038;42.612;23.066;2023-07-20T07:18:12;92820.66;;;42.65;22.41
7986;BME280;4038;42.612;23.066;2023-07-20T07:20:37;92823.53;;;45.19;20.40
7986;BME280;4038;42.612;23.066;2023-07-20T07:23:03;92818.66;;;44.95;20.71
7986;BME280;4038;42.612;23.066;2023-07-20T07:25:28;92822.41;;;44.80;21.11
7986;BME280;4038;42.612;23.066;2023-07-20T07:27:55;92823.38;;;44.29;21.52
7986;BME280;4038;42.612;23.066;2023-07-20T07:30:21;92816.28;;;43.90;22.54
7986;BME280;4038;42.612;23.066;2023-07-20T07:32:46;92817.84;;;43.32;22.75
7986;BME280;4038;42.612;23.066;2023-07-20T07:35:12;92803.28;;;43.99;22.51
7986;BME280;4038;42.612;23.066;2023-07-20T07:37:38;92806.09;;;46.58;20.04
7986;BME280;4038;42.612;23.066;2023-07-20T07:40:04;92792.50;;;47.84;19.34
7986;BME280;4038;42.612;23.066;2023-07-20T07:42:31;92790.25;;;44.06;22.28
7986;BME280;4038;42.612;23.066;2023-07-20T07:44:56;92776.81;;;46.29;20.80
7986;BME280;4038;42.612;23.066;2023-07-20T07:47:22;92779.53;;;48.81;18.13
7986;BME280;4038;42.612;23.066;2023-07-20T07:49:47;92797.56;;;45.15;20.94
7986;BME280;4038;42.612;23.066;2023-07-20T07:52:12;92781.19;;;44.77;20.94
7986;BME280;4038;42.612;23.066;2023-07-20T07:54:39;92794.75;;;43.54;21.86
7986;BME280;4038;42.612;23.066;2023-07-20T07:57:05;92787.88;;;41.57;23.90
7986;BME280;4038;42.612;23.066;2023-07-20T07:59:30;92799.81;;;43.11;21.79
7986;BME280;4038;42.612;23.066;2023-07-20T08:02:01;92806.09;;;42.04;22.09
7986;BME280;4038;42.612;23.066;2023-07-20T08:04:27;92815.63;;;41.12;23.22
7986;BME280;4038;42.612;23.066;2023-07-20T08:06:52;92822.06;;;43.90;20.38
7986;BME280;4038;42.612;23.066;2023-07-20T08:09:18;92825.72;;;43.66;20.97
7986;BME280;4038;42.612;23.066;2023-07-20T08:11:43;92822.06;;;43.96;20.51
7986;BME280;4038;42.612;23.066;2023-07-20T08:14:08;92819.19;;;43.84;21.15
7986;BME280;4038;42.612;23.066;2023-07-20T08:16:34;92801.91;;;42.52;23.27
7986;BME280;4038;42.612;23.066;2023-07-20T08:18:59;92814.88;;;42.47;24.36
7986;BME280;4038;42.612;23.066;2023-07-20T08:21:25;92801.56;;;41.57;25.57
7986;BME280;4038;42.612;23.066;2023-07-20T08:23:50;92796.22;;;42.80;23.77
7986;BME280;4038;42.612;23.066;2023-07-20T08:26:15;92812.59;;;42.15;24.86
7986;BME280;4038;42.612;23.066;2023-07-20T08:28:43;92811.19;;;42.22;24.78
7986;BME280;4038;42.612;23.066;2023-07-20T08:31:09;92830.19;;;41.43;25.25
7986;BME280;4038;42.612;23.066;2023-07-20T08:33:34;92835.63;;;39.69;26.89
7986;BME280;4038;42.612;23.066;2023-07-20T08:36:01;92830.28;;;38.57;28.11
7986;BME280;4038;42.612;23.066;2023-07-20T08:38:27;92832.75;;;41.00;25.31
7986;BME280;4038;42.612;23.066;2023-07-20T08:40:52;92821.84;;;40.16;24.83
7986;BME280;4038;42.612;23.066;2023-07-20T08:43:22;92814.56;;;39.51;25.62
7986;BME280;4038;42.612;23.066;2023-07-20T08:45:53;92817.78;;;39.77;24.81
7986;BME280;4038;42.612;23.066;2023-07-20T08:48:20;92809.97;;;40.44;23.64
7986;BME280;4038;42.612;23.066;2023-07-20T08:50:47;92805.84;;;41.54;22.42
7986;BME280;4038;42.612;23.066;2023-07-20T08:53:14;92806.50;;;41.46;22.55
7986;BME280;4038;42.612;23.066;2023-07-20T08:55:40;92813.53;;;43.07;21.48
7986;BME280;4038;42.612;23.066;2023-07-20T08:58:08;92805.50;;;42.36;21.96
7986;BME280;4038;42.612;23.066;2023-07-20T09:00:36;92807.16;;;41.35;22.96
7986;BME280;4038;42.612;23.066;2023-07-20T09:03:02;92808.97;;;42.00;22.26
7986;BME280;4038;42.612;23.066;2023-07-20T09:05:28;92815.06;;;40.51;23.18
7986;BME280;4038;42.612;23.066;2023-07-20T09:07:53;92809.84;;;42.50;21.40
7986;BME280;4038;42.612;23.066;2023-07-20T09:10:23;92813.16;;;41.75;21.53
7986;BME280;4038;42.612;23.066;2023-07-20T09:12:49;92793.22;;;43.86;19.55
7986;BME280;4038;42.612;23.066;2023-07-20T09:15:15;92810.63;;;43.41;20.28
7986;BME280;4038;42.612;23.066;2023-07-20T09:17:50;92809.13;;;43.77;19.63
7986;BME280;4038;42.612;23.066;2023-07-20T09:20:17;92813.03;;;44.69;20.03
7986;BME280;4038;42.612;23.066;2023-07-20T09:22:44;92814.97;;;43.20;20.70
7986;BME280;4038;42.612;23.066;2023-07-20T09:27:43;92800.91;;;45.44;18.94
7986;BME280;4038;42.612;23.066;2023-07-20T09:30:10;92806.66;;;45.48;18.51
7986;BME280;4038;42.612;23.066;2023-07-20T09:32:48;92804.69;;;47.06;17.35
7986;BME280;4038;42.612;23.066;2023-07-20T09:35:15;92803.41;;;43.54;19.72
7986;BME280;4038;42.612;23.066;2023-07-20T09:38:00;92806.31;;;43.16;20.00
7986;BME280;4038;42.612;23.066;2023-07-20T09:40:27;92804.63;;;44.22;18.89
7986;BME280;4038;42.612;23.066;2023-07-20T09:42:54;92809.78;;;47.49;16.74
7986;BME280;4038;42.612;23.066;2023-07-20T09:45:35;92792.75;;;46.81;16.80
7986;BME280;4038;42.612;23.066;2023-07-20T09:48:09;92797.19;;;49.35;15.60
7986;BME280;4038;42.612;23.066;2023-07-20T09:50:50;92778.25;;;46.79;17.36
7986;BME280;4038;42.612;23.066;2023-07-20T09:53:17;92770.31;;;45.63;17.69
7986;BME280;4038;42.612;23.066;2023-07-20T09:55:49;92774.63;;;45.66;18.00
7986;BME280;4038;42.612;23.066;2023-07-20T09:58:16;92777.50;;;43.14;20.00
7986;BME280;4038;42.612;23.066;2023-07-20T10:00:42;92769.38;;;43.87;19.48
7986;BME280;4038;42.612;23.066;2023-07-20T10:03:22;92776.25;;;45.51;18.46
7986;BME280;4038;42.612;23.066;2023-07-20T10:06:00;92787.53;;;43.55;19.75
7986;BME280;4038;42.612;23.066;2023-07-20T10:08:29;92778.72;;;45.90;17.97
7986;BME280;4038;42.612;23.066;2023-07-20T10:10:58;92790.16;;;46.57;18.16
7986;BME280;4038;42.612;23.066;2023-07-20T10:13:29;92803.19;;;44.23;19.16
7986;BME280;4038;42.612;23.066;2023-07-20T10:16:05;92800.25;;;44.29;19.04
7986;BME280;4038;42.612;23.066;2023-07-20T10:21:17;92785.97;;;42.13;20.43
7986;BME280;4038;42.612;23.066;2023-07-20T10:23:45;92787.28;;;44.18;18.77
7986;BME280;4038;42.612;23.066;2023-07-20T10:26:11;92780.69;;;45.38;17.94
7986;BME280;4038;42.612;23.066;2023-07-20T10:28:38;92774.94;;;46.56;16.91
7986;BME280;4038;42.612;23.066;2023-07-20T10:31:03;92770.97;;;47.27;16.50
7986;BME280;4038;42.612;23.066;2023-07-20T10:33:29;92766.09;;;46.13;17.78
7986;BME280;4038;42.612;23.066;2023-07-20T10:35:56;92756.91;;;44.29;19.00
7986;BME280;4038;42.612;23.066;2023-07-20T10:41:03;92750.03;;;42.40;20.75
7986;BME280;4038;42.612;23.066;2023-07-20T10:43:29;92752.47;;;44.49;18.80
7986;BME280;4038;42.612;23.066;2023-07-20T10:45:55;92749.81;;;45.85;18.12
7986;BME280;4038;42.612;23.066;2023-07-20T10:48:23;92740.72;;;44.77;19.23
7986;BME280;4038;42.612;23.066;2023-07-20T10:51:13;92718.31;;;43.29;20.32
7986;BME280;4038;42.612;23.066;2023-07-20T10:53:39;92689.94;;;43.98;20.01
7986;BME280;4038;42.612;23.066;2023-07-20T10:56:12;92706.13;;;45.42;18.83
7986;BME280;4038;42.612;23.066;2023-07-20T10:58:40;92709.59;;;47.11;17.57
7986;BME280;4038;42.612;23.066;2023-07-20T11:01:06;92713.34;;;44.60;19.00
7986;BME280;4038;42.612;23.066;2023-07-20T11:03:40;92717.28;;;45.14;19.01
7986;BME280;4038;42.612;23.066;2023-07-20T11:09:09;92712.38;;;45.67;18.92
7986;BME280;4038;42.612;23.066;2023-07-20T11:11:51;92714.34;;;47.28;17.15
7986;BME280;4038;42.612;23.066;2023-07-20T11:14:28;92709.00;;;47.04;17.92
7986;BME280;4038;42.612;23.066;2023-07-20T11:17:11;92705.22;;;48.23;16.84
7986;BME280;4038;42.612;23.066;2023-07-20T11:19:36;92710.34;;;47.09;17.93
7986;BME280;4038;42.612;23.066;2023-07-20T11:22:04;92709.16;;;46.92;17.47
7986;BME280;4038;42.612;23.066;2023-07-20T11:24:32;92708.50;;;46.40;17.97
7986;BME280;4038;42.612;23.066;2023-07-20T11:26:58;92707.19;;;45.06;19.03
7986;BME280;4038;42.612;23.066;2023-07-20T11:29:24;92704.38;;;47.93;16.56
7986;BME280;4038;42.612;23.066;2023-07-20T11:32:05;92698.63;;;48.26;16.34
7986;BME280;4038;42.612;23.066;2023-07-20T11:34:31;92693.78;;;49.07;15.95
7986;BME280;4038;42.612;23.066;2023-07-20T11:36:57;92694.38;;;48.54;16.88
7986;BME280;4038;42.612;23.066;2023-07-20T11:39:23;92683.06;;;49.00;16.36
7986;BME280;4038;42.612;23.066;2023-07-20T11:41:53;92678.66;;;50.08;15.13
7986;BME280;4038;42.612;23.066;2023-07-20T11:44:24;92677.13;;;45.46;17.98
7986;BME280;4038;42.612;23.066;2023-07-20T11:47:10;92682.00;;;48.54;16.14
7986;BME280;4038;42.612;23.066;2023-07-20T11:49:37;92669.44;;;49.21;15.89
7986;BME280;4038;42.612;23.066;2023-07-20T11:52:08;92668.13;;;47.16;17.20
7986;BME280;4038;42.612;23.066;2023-07-20T11:54:38;92667.91;;;47.65;16.92
7986;BME280;4038;42.612;23.066;2023-07-20T11:57:05;92673.16;;;47.94;17.18
7986;BME280;4038;42.612;23.066;2023-07-20T11:59:31;92660.97;;;47.11;17.44
7986;BME280;4038;42.612;23.066;2023-07-20T12:01:57;92653.03;;;47.10;17.38
7986;BME280;4038;42.612;23.066;2023-07-20T12:04:23;92658.00;;;46.27;18.11
7986;BME280;4038;42.612;23.066;2023-07-20T12:06:48;92653.41;;;46.42;17.93
7986;BME280;4038;42.612;23.066;2023-07-20T12:09:15;92651.53;;;45.69;17.87
7986;BME280;4038;42.612;23.066;2023-07-20T12:11:43;92654.16;;;45.92;17.47
7986;BME280;4038;42.612;23.066;2023-07-20T12:14:09;92643.25;;;46.86;17.23
7986;BME280;4038;42.612;23.066;2023-07-20T12:16:36;92648.50;;;45.18;18.62
7986;BME280;4038;42.612;23.066;2023-07-20T12:19:06;92645.84;;;46.14;18.21
7986;BME280;4038;42.612;23.066;2023-07-20T12:21:34;92649.44;;;46.17;18.04
7986;BME280;4038;42.612;23.066;2023-07-20T12:23:59;92637.72;;;45.74;16.81
7986;BME280;4038;42.612;23.066;2023-07-20T12:26:25;92644.34;;;45.01;17.93
7986;BME280;4038;42.612;23.066;2023-07-20T12:28:52;92643.00;;;45.57;17.38
7986;BME280;4038;42.612;23.066;2023-07-20T12:31:17;92625.97;;;46.37;16.67
7986;BME280;4038;42.612;23.066;2023-07-20T12:33:43;92635.16;;;46.93;16.00
7986;BME280;4038;42.612;23.066;2023-07-20T12:36:09;92627.66;;;46.20;15.96
7986;BME280;4038;42.612;23.066;2023-07-20T12:38:35;92625.09;;;47.27;15.63
7986;BME280;4038;42.612;23.066;2023-07-20T12:41:02;92629.16;;;45.64;16.85
7986;BME280;4038;42.612;23.066;2023-07-20T12:43:28;92617.53;;;45.08;17.20
7986;BME280;4038;42.612;23.066;2023-07-20T12:45:55;92622.41;;;44.47;17.94
7986;BME280;4038;42.612;23.066;2023-07-20T12:48:21;92621.06;;;45.13;17.47
7986;BME280;4038;42.612;23.066;2023-07-20T12:50:47;92619.38;;;44.65;18.19
7986;BME280;4038;42.612;23.066;2023-07-20T12:53:12;92613.00;;;46.32;16.19
7986;BME280;4038;42.612;23.066;2023-07-20T12:55:38;92614.13;;;45.51;16.95
7986;BME280;4038;42.612;23.066;2023-07-20T12:58:08;92612.50;;;44.21;17.90
7986;BME280;4038;42.612;23.066;2023-07-20T13:00:33;92609.34;;;45.84;17.06
7986;BME280;4038;42.612;23.066;2023-07-20T13:02:59;92593.72;;;44.20;18.47
7986;BME280;4038;42.612;23.066;2023-07-20T13:05:24;92608.94;;;44.96;17.76
7986;BME280;4038;42.612;23.066;2023-07-20T13:07:50;92605.19;;;44.34;18.25
7986;BME280;4038;42.612;23.066;2023-07-20T13:10:15;92615.09;;;43.48;18.60
7986;BME280;4038;42.612;23.066;2023-07-20T13:12:41;92609.50;;;45.72;16.72
7986;BME280;4038;42.612;23.066;2023-07-20T13:15:10;92604.63;;;46.10;16.11
7986;BME280;4038;42.612;23.066;2023-07-20T13:17:37;92604.47;;;46.22;16.39
7986;BME280;4038;42.612;23.066;2023-07-20T13:20:04;92607.09;;;44.64;17.83
7986;BME280;4038;42.612;23.066;2023-07-20T13:22:31;92610.84;;;47.15;16.03
7986;BME280;4038;42.612;23.066;2023-07-20T13:24:57;92601.69;;;46.12;16.67
7986;BME280;4038;42.612;23.066;2023-07-20T13:27:22;92608.31;;;44.88;17.76
7986;BME280;4038;42.612;23.066;2023-07-20T13:29:48;92600.09;;;45.72;17.03
7986;BME280;4038;42.612;23.066;2023-07-20T13:32:14;92594.44;;;46.13;16.62
7986;BME280;4038;42.612;23.066;2023-07-20T13:34:46;92600.34;;;45.54;16.72